sensor_id;sensor_type;location;lat;lon;timestamp;noise_LAeq;noise_LA_min;noise_LA_max;noise_LA01;noise_LA95
74234;Laerm;62591;55.764;37.718;2023-07-02T00:00:23;43.92;38.35;50.55;;
74234;Laerm;62591;55.764;37.718;2023-07-02T00:02:53;43.23;36.53;52.72;;
74234;Laerm;62591;55.764;37.718;2023-07-02T00:05:21;43.55;37.02;51.57;;
74234;Laerm;62591;55.764;37.718;2023-07-02T00:07:53;44.69;39.21;50.60;;
74234;Laerm;62591;55.764;37.718;2023-07-02T00:10:22;41.48;36.08;49.22;;
74234;Laerm;62591;55.764;37.718;2023-07-02T00:12:50;41.76;36.40;48.25;;
74234;Laerm;62591;55.764;37.718;2023-07-02T00:15:19;40.69;35.95;51.26;;
74234;Laerm;62591;55.764;37.718;2023-07-02T00:17:48;41.00;35.55;57.03;;
74234;Laerm;62591;55.764;37.718;2023-07-02T00:20:18;39.59;35.31;46.89;;
74234;Laerm;62591;55.764;37.718;2023-07-02T00:22:48;41.60;35.73;46.44;;
74234;Laerm;62591;55.764;37.718;2023-07-02T00:25:17;40.38;35.41;49.69;;
74234;Laerm;62591;55.764;37.718;2023-07-02T00:27:46;41.01;36.30;45.15;;
74234;Laerm;62591;55.764;37.718;2023-07-02T00:30:15;43.99;36.40;53.49;;
74234;Laerm;62591;55.764;37.718;2023-07-02T00:32:43;39.65;35.49;46.00;;
74234;Laerm;62591;55.764;37.718;2023-07-02T00:35:12;41.18;36.76;47.67;;
74234;Laerm;62591;55.764;37.718;2023-07-02T00:37:43;40.08;35.89;47.86;;
74234;Laerm;62591;55.764;37.718;2023-07-02T00:40:11;40.88;35.28;46.84;;
74234;Laerm;62591;55.764;37.718;2023-07-02T00:42:40;43.38;35.13;54.92;;
74234;Laerm;62591;55.764;37.718;2023-07-02T00:45:09;41.79;36.62;52.55;;
74234;Laerm;62591;55.764;37.718;2023-07-02T00:47:38;41.90;35.48;51.59;;
74234;Laerm;62591;55.764;37.718;2023-07-02T00:50:07;41.53;35.65;49.32;;
74234;Laerm;62591;55.764;37.718;2023-07-02T00:52:37;40.51;35.82;55.59;;
74234;Laerm;62591;55.764;37.718;2023-07-02T00:55:09;41.18;35.61;49.36;;
74234;Laerm;62591;55.764;37.718;2023-07-02T00:57:37;41.19;36.13;48.03;;
74234;Laerm;62591;55.764;37.718;2023-07-02T01:00:08;41.74;35.19;53.58;;
74234;Laerm;62591;55.764;37.718;2023-07-02T01:02:37;38.53;34.77;45.38;;
74234;Laerm;62591;55.764;37.718;2023-07-02T01:05:14;39.83;34.47;46.17;;
74234;Laerm;62591;55.764;37.718;2023-07-02T01:07:43;43.59;38.00;51.46;;
74234;Laerm;62591;55.764;37.718;2023-07-02T01:10:13;41.55;36.10;51.31;;
74234;Laerm;62591;55.764;37.718;2023-07-02T01:12:42;39.05;35.23;52.16;;
74234;Laerm;62591;55.764;37.718;2023-07-02T01:15:12;40.42;34.65;51.22;;
74234;Laerm;62591;55.764;37.718;2023-07-02T01:17:42;39.08;35.14;44.85;;
74234;Laerm;62591;55.764;37.718;2023-07-02T01:20:13;40.93;35.48;49.60;;
74234;Laerm;62591;55.764;37.718;2023-07-02T01:22:42;38.58;34.30;47.47;;
74234;Laerm;62591;55.764;37.718;2023-07-02T01:25:10;46.60;35.18;54.66;;
74234;Laerm;62591;55.764;37.718;2023-07-02T01:27:39;40.14;35.53;48.49;;
74234;Laerm;62591;55.764;37.718;2023-07-02T01:30:08;47.16;39.11;53.81;;
74234;Laerm;62591;55.764;37.718;2023-07-02T01:32:38;43.49;35.58;57.55;;
74234;Laerm;62591;55.764;37.718;2023-07-02T01:35:08;40.99;35.47;50.08;;
74234;Laerm;62591;55.764;37.718;2023-07-02T01:37:39;40.22;35.35;51.55;;
74234;Laerm;62591;55.764;37.718;2023-07-02T01:40:08;40.50;35.16;50.97;;
74234;Laerm;62591;55.764;37.718;2023-07-02T01:42:37;43.72;36.07;52.78;;
74234;Laerm;62591;55.764;37.718;2023-07-02T01:45:07;45.69;37.15;54.92;;
74234;Laerm;62591;55.764;37.718;2023-07-02T01:47:36;41.98;35.86;47.58;;
74234;Laerm;62591;55.764;37.718;2023-07-02T01:50:09;45.61;36.63;53.28;;
74234;Laerm;62591;55.764;37.718;2023-07-02T01:52:39;42.89;35.90;56.92;;
74234;Laerm;62591;55.764;37.718;2023-07-02T01:55:09;42.18;36.12;50.04;;
74234;Laerm;62591;55.764;37.718;2023-07-02T01:57:38;47.26;37.79;56.55;;
74234;Laerm;62591;55.764;37.718;2023-07-02T02:00:08;43.50;36.76;53.06;;
74234;Laerm;62591;55.764;37.718;2023-07-02T02:02:43;41.52;36.34;51.97;;
74234;Laerm;62591;55.764;37.718;2023-07-02T02:05:13;41.96;35.88;50.28;;
74234;Laerm;62591;55.764;37.718;2023-07-02T02:07:43;40.27;35.56;51.74;;
74234;Laerm;62591;55.764;37.718;2023-07-02T02:10:12;45.98;38.78;58.09;;
74234;Laerm;62591;55.764;37.718;2023-07-02T02:12:42;44.23;36.89;51.70;;
74234;Laerm;62591;55.764;37.718;2023-07-02T02:15:10;44.32;37.80;51.04;;
74234;Laerm;62591;55.764;37.718;2023-07-02T02:17:41;40.91;35.90;50.93;;
74234;Laerm;62591;55.764;37.718;2023-07-02T02:20:12;39.53;35.57;45.50;;
74234;Laerm;62591;55.764;37.718;2023-07-02T02:22:41;42.27;34.94;50.04;;
74234;Laerm;62591;55.764;37.718;2023-07-02T02:25:11;39.86;34.69;46.93;;
74234;Laerm;62591;55.764;37.718;2023-07-02T02:27:39;45.04;36.12;52.78;;
74234;Laerm;62591;55.764;37.718;2023-07-02T02:30:08;43.70;35.13;62.32;;
74234;Laerm;62591;55.764;37.718;2023-07-02T02:32:37;42.41;35.08;55.09;;
74234;Laerm;62591;55.764;37.718;2023-07-02T02:35:09;43.93;34.97;58.50;;
74234;Laerm;62591;55.764;37.718;2023-07-02T02:37:38;45.51;35.77;59.72;;
74234;Laerm;62591;55.764;37.718;2023-07-02T02:40:09;41.95;35.33;49.34;;
74234;Laerm;62591;55.764;37.718;2023-07-02T02:42:40;47.07;35.80;61.76;;
74234;Laerm;62591;55.764;37.718;2023-07-02T02:45:09;42.00;34.95;52.36;;
74234;Laerm;62591;55.764;37.718;2023-07-02T02:47:38;43.94;35.79;58.09;;
74234;Laerm;62591;55.764;37.718;2023-07-02T02:50:07;42.55;35.24;58.29;;
74234;Laerm;62591;55.764;37.718;2023-07-02T02:52:37;44.06;35.45;54.80;;
74234;Laerm;62591;55.764;37.718;2023-07-02T02:55:06;42.96;36.53;59.36;;
74234;Laerm;62591;55.764;37.718;2023-07-02T02:57:35;43.37;35.75;52.67;;
74234;Laerm;62591;55.764;37.718;2023-07-02T03:00:06;42.80;34.97;53.44;;
74234;Laerm;62591;55.764;37.718;2023-07-02T03:02:36;41.90;35.50;50.16;;
74234;Laerm;62591;55.764;37.718;2023-07-02T03:05:06;43.61;36.71;54.16;;
74234;Laerm;62591;55.764;37.718;2023-07-02T03:07:35;46.15;36.26;51.36;;
74234;Laerm;62591;55.764;37.718;2023-07-02T03:10:04;45.19;35.90;54.99;;
74234;Laerm;62591;55.764;37.718;2023-07-02T03:12:33;46.95;36.08;62.14;;
74234;Laerm;62591;55.764;37.718;2023-07-02T03:15:02;47.75;40.23;52.89;;
74234;Laerm;62591;55.764;37.718;2023-07-02T03:17:34;45.83;37.99;57.19;;
74234;Laerm;62591;55.764;37.718;2023-07-02T03:20:03;51.03;40.05;58.74;;
74234;Laerm;62591;55.764;37.718;2023-07-02T03:22:32;46.74;39.44;54.24;;
74234;Laerm;62591;55.764;37.718;2023-07-02T03:25:01;48.12;41.76;53.47;;
74234;Laerm;62591;55.764;37.718;2023-07-02T03:27:34;46.75;37.68;58.83;;
74234;Laerm;62591;55.764;37.718;2023-07-02T03:30:03;47.49;37.91;61.43;;
74234;Laerm;62591;55.764;37.718;2023-07-02T03:32:35;43.47;37.08;53.41;;
74234;Laerm;62591;55.764;37.718;2023-07-02T03:35:05;49.68;38.79;57.47;;
74234;Laerm;62591;55.764;37.718;2023-07-02T03:37:33;54.14;44.27;62.37;;
74234;Laerm;62591;55.764;37.718;2023-07-02T03:40:02;47.71;40.44;55.21;;
74234;Laerm;62591;55.764;37.718;2023-07-02T03:42:32;45.78;38.44;52.82;;
74234;Laerm;62591;55.764;37.718;2023-07-02T03:45:01;48.25;38.12;62.52;;
74234;Laerm;62591;55.764;37.718;2023-07-02T03:47:32;42.34;36.32;50.05;;
74234;Laerm;62591;55.764;37.718;2023-07-02T03:50:02;42.53;35.53;55.14;;
74234;Laerm;62591;55.764;37.718;2023-07-02T03:52:31;44.67;35.80;60.89;;
74234;Laerm;62591;55.764;37.718;2023-07-02T03:55:00;44.07;35.36;54.76;;
74234;Laerm;62591;55.764;37.718;2023-07-02T03:57:30;43.07;35.25;51.87;;
74234;Laerm;62591;55.764;37.718;2023-07-02T03:59:59;46.69;36.60;58.84;;
74234;Laerm;62591;55.764;37.718;2023-07-02T04:02:31;46.01;37.90;55.78;;
74234;Laerm;62591;55.764;37.718;2023-07-02T04:05:01;45.77;39.74;54.24;;
74234;Laerm;62591;55.764;37.718;2023-07-02T04:07:31;44.57;38.13;50.29;;
74234;Laerm;62591;55.764;37.718;2023-07-02T04:10:00;44.40;38.26;54.52;;
74234;Laerm;62591;55.764;37.718;2023-07-02T04:12:31;43.28;35.40;52.60;;
74234;Laerm;62591;55.764;37.718;2023-07-02T04:15:00;41.38;36.38;49.70;;
74234;Laerm;62591;55.764;37.718;2023-07-02T04:17:32;47.59;35.78;59.95;;
74234;Laerm;62591;55.764;37.718;2023-07-02T04:20:03;45.25;37.33;52.68;;
74234;Laerm;62591;55.764;37.718;2023-07-02T04:22:34;41.80;36.50;48.98;;
74234;Laerm;62591;55.764;37.718;2023-07-02T04:25:03;46.29;37.40;53.82;;
74234;Laerm;62591;55.764;37.718;2023-07-02T04:27:52;44.10;34.77;56.01;;
74234;Laerm;62591;55.764;37.718;2023-07-02T04:30:24;45.98;37.19;54.93;;
74234;Laerm;62591;55.764;37.718;2023-07-02T04:32:53;41.47;34.94;50.32;;
74234;Laerm;62591;55.764;37.718;2023-07-02T04:35:23;40.42;34.77;48.62;;
74234;Laerm;62591;55.764;37.718;2023-07-02T04:37:52;44.53;34.79;60.08;;
74234;Laerm;62591;55.764;37.718;2023-07-02T04:40:20;42.93;35.32;53.52;;
74234;Laerm;62591;55.764;37.718;2023-07-02T04:42:49;43.99;35.60;53.09;;
74234;Laerm;62591;55.764;37.718;2023-07-02T04:45:25;45.35;34.79;56.32;;
74234;Laerm;62591;55.764;37.718;2023-07-02T04:47:56;47.47;38.72;60.91;;
74234;Laerm;62591;55.764;37.718;2023-07-02T04:50:26;47.76;38.67;59.84;;
74234;Laerm;62591;55.764;37.718;2023-07-02T04:52:55;45.08;36.19;59.54;;
74234;Laerm;62591;55.764;37.718;2023-07-02T04:55:23;45.49;35.74;56.33;;
74234;Laerm;62591;55.764;37.718;2023-07-02T04:57:52;45.68;36.04;59.13;;
74234;Laerm;62591;55.764;37.718;2023-07-02T05:00:21;42.00;36.07;55.51;;
74234;Laerm;62591;55.764;37.718;2023-07-02T05:02:50;48.53;39.04;59.56;;
74234;Laerm;62591;55.764;37.718;2023-07-02T05:05:19;43.71;36.46;51.39;;
74234;Laerm;62591;55.764;37.718;2023-07-02T05:07:49;43.66;36.44;57.82;;
74234;Laerm;62591;55.764;37.718;2023-07-02T05:10:17;44.37;36.94;56.42;;
74234;Laerm;62591;55.764;37.718;2023-07-02T05:12:46;43.00;36.94;50.13;;
74234;Laerm;62591;55.764;37.718;2023-07-02T05:15:15;48.13;37.58;57.35;;
74234;Laerm;62591;55.764;37.718;2023-07-02T05:17:43;45.91;40.42;55.38;;
74234;Laerm;62591;55.764;37.718;2023-07-02T05:20:12;48.29;38.12;58.86;;
74234;Laerm;62591;55.764;37.718;2023-07-02T05:22:41;43.36;37.32;52.58;;
74234;Laerm;62591;55.764;37.718;2023-07-02T05:25:11;47.92;38.13;62.65;;
74234;Laerm;62591;55.764;37.718;2023-07-02T05:27:40;44.21;37.40;56.99;;
74234;Laerm;62591;55.764;37.718;2023-07-02T05:30:09;47.33;38.38;58.10;;
74234;Laerm;62591;55.764;37.718;2023-07-02T05:32:37;47.70;37.91;58.13;;
74234;Laerm;62591;55.764;37.718;2023-07-02T05:35:08;46.81;38.17;59.45;;
74234;Laerm;62591;55.764;37.718;2023-07-02T05:37:36;47.77;37.61;59.03;;
74234;Laerm;62591;55.764;37.718;2023-07-02T05:40:07;48.14;37.09;64.13;;
74234;Laerm;62591;55.764;37.718;2023-07-02T05:42:37;43.66;35.95;51.18;;
74234;Laerm;62591;55.764;37.718;2023-07-02T05:45:07;45.78;38.47;53.11;;
74234;Laerm;62591;55.764;37.718;2023-07-02T05:47:35;44.93;37.67;50.96;;
74234;Laerm;62591;55.764;37.718;2023-07-02T05:50:05;52.10;39.25;61.81;;
74234;Laerm;62591;55.764;37.718;2023-07-02T05:52:34;45.68;38.12;54.69;;
74234;Laerm;62591;55.764;37.718;2023-07-02T05:55:03;48.17;38.68;61.32;;
74234;Laerm;62591;55.764;37.718;2023-07-02T05:57:31;46.05;38.21;56.20;;
74234;Laerm;62591;55.764;37.718;2023-07-02T06:00:01;46.57;38.11;55.93;;
74234;Laerm;62591;55.764;37.718;2023-07-02T06:02:38;46.44;37.33;54.10;;
74234;Laerm;62591;55.764;37.718;2023-07-02T06:05:08;49.16;37.90;61.26;;
74234;Laerm;62591;55.764;37.718;2023-07-02T06:07:36;46.42;38.55;55.48;;
74234;Laerm;62591;55.764;37.718;2023-07-02T06:10:06;47.37;37.59;56.46;;
74234;Laerm;62591;55.764;37.718;2023-07-02T06:12:35;46.40;38.10;59.29;;
74234;Laerm;62591;55.764;37.718;2023-07-02T06:15:06;43.98;38.76;49.00;;
74234;Laerm;62591;55.764;37.718;2023-07-02T06:17:35;44.54;37.65;64.62;;
74234;Laerm;62591;55.764;37.718;2023-07-02T06:20:05;46.25;38.14;62.93;;
74234;Laerm;62591;55.764;37.718;2023-07-02T06:22:34;44.49;37.28;53.82;;
74234;Laerm;62591;55.764;37.718;2023-07-02T06:25:03;47.16;38.30;56.67;;
74234;Laerm;62591;55.764;37.718;2023-07-02T06:27:32;45.66;38.08;57.17;;
74234;Laerm;62591;55.764;37.718;2023-07-02T06:30:01;46.44;39.50;52.88;;
74234;Laerm;62591;55.764;37.718;2023-07-02T06:32:33;44.41;38.63;52.28;;
74234;Laerm;62591;55.764;37.718;2023-07-02T06:35:01;46.83;39.18;69.98;;
74234;Laerm;62591;55.764;37.718;2023-07-02T06:37:31;47.96;41.37;56.52;;
74234;Laerm;62591;55.764;37.718;2023-07-02T06:39:59;44.67;37.49;53.69;;
74234;Laerm;62591;55.764;37.718;2023-07-02T06:42:30;44.88;39.15;53.50;;
74234;Laerm;62591;55.764;37.718;2023-07-02T06:45:00;46.32;40.12;50.89;;
74234;Laerm;62591;55.764;37.718;2023-07-02T06:47:32;46.82;39.03;60.39;;
74234;Laerm;62591;55.764;37.718;2023-07-02T06:50:01;48.54;37.38;64.26;;
74234;Laerm;62591;55.764;37.718;2023-07-02T06:52:31;47.34;38.04;61.18;;
74234;Laerm;62591;55.764;37.718;2023-07-02T06:55:00;44.77;37.52;50.88;;
74234;Laerm;62591;55.764;37.718;2023-07-02T06:57:30;49.38;37.87;60.44;;
74234;Laerm;62591;55.764;37.718;2023-07-02T06:59:59;48.58;42.15;57.24;;
74234;Laerm;62591;55.764;37.718;2023-07-02T07:02:31;49.60;42.02;59.63;;
74234;Laerm;62591;55.764;37.718;2023-07-02T07:05:01;66.49;42.82;81.36;;
74234;Laerm;62591;55.764;37.718;2023-07-02T07:07:31;46.27;38.57;60.60;;
74234;Laerm;62591;55.764;37.718;2023-07-02T07:10:00;44.88;39.09;52.29;;
74234;Laerm;62591;55.764;37.718;2023-07-02T07:12:31;48.31;39.99;60.42;;
74234;Laerm;62591;55.764;37.718;2023-07-02T07:14:59;47.81;39.49;53.92;;
74234;Laerm;62591;55.764;37.718;2023-07-02T07:17:30;45.42;39.21;56.03;;
74234;Laerm;62591;55.764;37.718;2023-07-02T07:20:01;47.70;40.60;60.21;;
74234;Laerm;62591;55.764;37.718;2023-07-02T07:22:33;47.73;39.54;57.08;;
74234;Laerm;62591;55.764;37.718;2023-07-02T07:25:01;46.07;39.77;59.61;;
74234;Laerm;62591;55.764;37.718;2023-07-02T07:27:31;52.07;44.50;58.21;;
74234;Laerm;62591;55.764;37.718;2023-07-02T07:30:00;51.78;46.98;55.79;;
74234;Laerm;62591;55.764;37.718;2023-07-02T07:32:32;52.49;48.32;56.51;;
74234;Laerm;62591;55.764;37.718;2023-07-02T07:35:03;52.56;47.98;62.25;;
74234;Laerm;62591;55.764;37.718;2023-07-02T07:37:31;51.57;41.86;59.82;;
74234;Laerm;62591;55.764;37.718;2023-07-02T07:40:00;49.76;42.82;66.74;;
74234;Laerm;62591;55.764;37.718;2023-07-02T07:42:30;47.60;40.54;58.32;;
74234;Laerm;62591;55.764;37.718;2023-07-02T07:44:58;47.34;42.03;54.99;;
74234;Laerm;62591;55.764;37.718;2023-07-02T07:47:27;47.22;40.19;56.50;;
74234;Laerm;62591;55.764;37.718;2023-07-02T07:49:56;49.03;39.27;66.15;;
74234;Laerm;62591;55.764;37.718;2023-07-02T07:52:27;47.38;40.31;56.28;;
74234;Laerm;62591;55.764;37.718;2023-07-02T07:54:55;45.95;38.86;52.46;;
74234;Laerm;62591;55.764;37.718;2023-07-02T07:57:24;47.75;38.38;56.15;;
74234;Laerm;62591;55.764;37.718;2023-07-02T07:59:53;49.60;43.84;55.24;;
74234;Laerm;62591;55.764;37.718;2023-07-02T08:02:21;48.83;42.47;58.39;;
74234;Laerm;62591;55.764;37.718;2023-07-02T08:04:50;52.50;42.15;62.34;;
74234;Laerm;62591;55.764;37.718;2023-07-02T08:07:19;49.71;42.20;59.45;;
74234;Laerm;62591;55.764;37.718;2023-07-02T08:09:49;51.09;44.21;64.20;;
74234;Laerm;62591;55.764;37.718;2023-07-02T08:12:18;50.38;41.24;57.42;;
74234;Laerm;62591;55.764;37.718;2023-07-02T08:14:46;48.42;42.72;57.67;;
74234;Laerm;62591;55.764;37.718;2023-07-02T08:17:15;47.63;42.35;53.87;;
74234;Laerm;62591;55.764;37.718;2023-07-02T08:19:44;47.56;41.32;53.16;;
74234;Laerm;62591;55.764;37.718;2023-07-02T08:22:13;50.85;42.64;61.29;;
74234;Laerm;62591;55.764;37.718;2023-07-02T08:24:42;48.98;42.53;58.88;;
74234;Laerm;62591;55.764;37.718;2023-07-02T08:27:12;48.14;39.62;61.59;;
74234;Laerm;62591;55.764;37.718;2023-07-02T08:29:43;49.67;41.87;56.29;;
74234;Laerm;62591;55.764;37.718;2023-07-02T08:32:12;49.42;42.65;58.17;;
74234;Laerm;62591;55.764;37.718;2023-07-02T08:34:41;48.71;43.31;56.32;;
74234;Laerm;62591;55.764;37.718;2023-07-02T08:37:10;50.91;44.30;62.48;;
74234;Laerm;62591;55.764;37.718;2023-07-02T08:39:39;49.87;42.20;61.75;;
74234;Laerm;62591;55.764;37.718;2023-07-02T08:42:07;48.45;41.96;57.60;;
74234;Laerm;62591;55.764;37.718;2023-07-02T08:44:38;50.86;43.10;67.03;;
74234;Laerm;62591;55.764;37.718;2023-07-02T08:47:06;49.69;42.29;62.61;;
74234;Laerm;62591;55.764;37.718;2023-07-02T08:49:35;50.63;42.26;62.40;;
74234;Laerm;62591;55.764;37.718;2023-07-02T08:52:04;46.14;40.57;55.60;;
74234;Laerm;62591;55.764;37.718;2023-07-02T08:54:33;47.43;40.95;65.97;;
74234;Laerm;62591;55.764;37.718;2023-07-02T08:57:03;46.37;39.40;57.91;;
74234;Laerm;62591;55.764;37.718;2023-07-02T08:59:32;49.25;41.94;58.83;;
74234;Laerm;62591;55.764;37.718;2023-07-02T09:02:02;48.93;41.39;55.04;;
74234;Laerm;62591;55.764;37.718;2023-07-02T09:04:33;47.45;41.16;54.32;;
74234;Laerm;62591;55.764;37.718;2023-07-02T09:07:06;45.58;39.37;57.52;;
74234;Laerm;62591;55.764;37.718;2023-07-02T09:09:44;48.34;38.05;64.64;;
74234;Laerm;62591;55.764;37.718;2023-07-02T09:12:24;47.24;39.44;54.82;;
74234;Laerm;62591;55.764;37.718;2023-07-02T09:14:56;46.18;39.74;58.11;;
74234;Laerm;62591;55.764;37.718;2023-07-02T09:17:30;44.82;38.63;57.70;;
74234;Laerm;62591;55.764;37.718;2023-07-02T09:20:00;45.66;37.95;53.81;;
74234;Laerm;62591;55.764;37.718;2023-07-02T09:22:31;44.34;39.63;51.39;;
74234;Laerm;62591;55.764;37.718;2023-07-02T09:25:01;46.05;38.61;53.64;;
74234;Laerm;62591;55.764;37.718;2023-07-02T09:27:36;47.96;41.45;55.89;;
74234;Laerm;62591;55.764;37.718;2023-07-02T09:30:10;46.41;39.24;55.07;;
74234;Laerm;62591;55.764;37.718;2023-07-02T09:32:42;48.30;40.28;56.46;;
74234;Laerm;62591;55.764;37.718;2023-07-02T09:35:12;48.40;40.85;62.67;;
74234;Laerm;62591;55.764;37.718;2023-07-02T09:37:42;49.73;41.70;59.75;;
74234;Laerm;62591;55.764;37.718;2023-07-02T09:40:11;51.96;42.87;58.60;;
74234;Laerm;62591;55.764;37.718;2023-07-02T09:42:41;50.20;44.19;64.31;;
74234;Laerm;62591;55.764;37.718;2023-07-02T09:45:10;51.21;42.81;64.55;;
74234;Laerm;62591;55.764;37.718;2023-07-02T09:47:44;50.01;40.29;58.27;;
74234;Laerm;62591;55.764;37.718;2023-07-02T09:50:16;50.97;43.40;57.16;;
74234;Laerm;62591;55.764;37.718;2023-07-02T09:52:46;49.88;43.11;55.18;;
74234;Laerm;62591;55.764;37.718;2023-07-02T09:55:16;46.09;38.28;53.22;;
74234;Laerm;62591;55.764;37.718;2023-07-02T09:57:45;46.19;38.65;58.24;;
74234;Laerm;62591;55.764;37.718;2023-07-02T10:00:15;44.69;37.23;52.49;;
74234;Laerm;62591;55.764;37.718;2023-07-02T10:02:49;48.44;38.93;59.91;;
74234;Laerm;62591;55.764;37.718;2023-07-02T10:05:28;47.65;40.47;57.89;;
74234;Laerm;62591;55.764;37.718;2023-07-02T10:07:57;47.85;40.15;55.86;;
74234;Laerm;62591;55.764;37.718;2023-07-02T10:10:27;47.53;40.10;68.20;;
74234;Laerm;62591;55.764;37.718;2023-07-02T10:12:56;47.96;40.70;57.61;;
74234;Laerm;62591;55.764;37.718;2023-07-02T10:15:26;46.97;39.85;57.64;;
74234;Laerm;62591;55.764;37.718;2023-07-02T10:17:57;47.79;40.43;56.57;;
74234;Laerm;62591;55.764;37.718;2023-07-02T10:20:33;48.06;40.78;59.99;;
74234;Laerm;62591;55.764;37.718;2023-07-02T10:23:03;49.14;40.09;64.11;;
74234;Laerm;62591;55.764;37.718;2023-07-02T10:25:33;47.12;39.40;62.37;;
74234;Laerm;62591;55.764;37.718;2023-07-02T10:28:14;48.70;39.11;55.80;;
74234;Laerm;62591;55.764;37.718;2023-07-02T10:30:46;47.67;42.16;53.39;;
74234;Laerm;62591;55.764;37.718;2023-07-02T10:33:17;45.81;39.01;52.68;;
74234;Laerm;62591;55.764;37.718;2023-07-02T10:35:47;47.42;38.41;61.66;;
74234;Laerm;62591;55.764;37.718;2023-07-02T10:38:20;45.81;39.40;53.41;;
74234;Laerm;62591;55.764;37.718;2023-07-02T10:40:54;50.70;43.41;61.00;;
74234;Laerm;62591;55.764;37.718;2023-07-02T10:43:27;48.66;42.56;58.47;;
74234;Laerm;62591;55.764;37.718;2023-07-02T10:45:57;49.03;41.13;56.60;;
74234;Laerm;62591;55.764;37.718;2023-07-02T10:48:29;49.39;41.81;60.51;;
74234;Laerm;62591;55.764;37.718;2023-07-02T10:50:58;49.83;41.21;63.46;;
74234;Laerm;62591;55.764;37.718;2023-07-02T10:53:27;49.76;43.18;55.97;;
74234;Laerm;62591;55.764;37.718;2023-07-02T10:55:56;49.53;43.07;58.11;;
74234;Laerm;62591;55.764;37.718;2023-07-02T10:58:26;49.27;41.86;55.80;;
74234;Laerm;62591;55.764;37.718;2023-07-02T11:00:55;49.32;41.43;60.18;;
74234;Laerm;62591;55.764;37.718;2023-07-02T11:03:25;49.52;39.83;61.29;;
74234;Laerm;62591;55.764;37.718;2023-07-02T11:05:55;48.66;41.33;62.91;;
74234;Laerm;62591;55.764;37.718;2023-07-02T11:08:34;47.88;37.85;60.04;;
74234;Laerm;62591;55.764;37.718;2023-07-02T11:11:07;47.61;40.63;66.80;;
74234;Laerm;62591;55.764;37.718;2023-07-02T11:13:44;48.42;37.87;57.89;;
74234;Laerm;62591;55.764;37.718;2023-07-02T11:16:18;46.78;39.90;55.14;;
74234;Laerm;62591;55.764;37.718;2023-07-02T11:18:47;46.62;39.92;54.73;;
74234;Laerm;62591;55.764;37.718;2023-07-02T11:21:17;48.76;40.92;63.80;;
74234;Laerm;62591;55.764;37.718;2023-07-02T11:23:46;47.28;39.26;61.51;;
74234;Laerm;62591;55.764;37.718;2023-07-02T11:26:14;46.71;40.72;55.15;;
74234;Laerm;62591;55.764;37.718;2023-07-02T11:28:50;48.34;40.39;69.54;;
74234;Laerm;62591;55.764;37.718;2023-07-02T11:31:25;50.45;40.55;68.01;;
74234;Laerm;62591;55.764;37.718;2023-07-02T11:33:57;48.62;41.82;54.89;;
74234;Laerm;62591;55.764;37.718;2023-07-02T11:36:27;45.45;40.14;51.51;;
74234;Laerm;62591;55.764;37.718;2023-07-02T11:38:55;49.37;40.37;57.53;;
74234;Laerm;62591;55.764;37.718;2023-07-02T11:41:24;49.05;40.53;65.80;;
74234;Laerm;62591;55.764;37.718;2023-07-02T11:43:53;47.89;40.46;54.31;;
74234;Laerm;62591;55.764;37.718;2023-07-02T11:46:21;46.20;41.37;51.34;;
74234;Laerm;62591;55.764;37.718;2023-07-02T11:48:50;48.43;42.85;60.41;;
74234;Laerm;62591;55.764;37.718;2023-07-02T11:51:18;47.66;40.96;56.82;;
74234;Laerm;62591;55.764;37.718;2023-07-02T11:53:50;47.07;39.55;56.61;;
74234;Laerm;62591;55.764;37.718;2023-07-02T11:56:18;48.37;39.92;57.35;;
74234;Laerm;62591;55.764;37.718;2023-07-02T11:58:47;47.76;40.93;58.55;;
74234;Laerm;62591;55.764;37.718;2023-07-02T12:01:16;48.88;41.02;59.85;;
74234;Laerm;62591;55.764;37.718;2023-07-02T12:03:44;48.94;41.75;59.19;;
74234;Laerm;62591;55.764;37.718;2023-07-02T12:06:13;46.62;39.65;53.29;;
74234;Laerm;62591;55.764;37.718;2023-07-02T12:08:42;46.60;41.15;60.24;;
74234;Laerm;62591;55.764;37.718;2023-07-02T12:11:12;45.34;38.56;54.94;;
74234;Laerm;62591;55.764;37.718;2023-07-02T12:13:40;46.17;38.00;55.87;;
74234;Laerm;62591;55.764;37.718;2023-07-02T12:16:09;45.94;40.09;54.14;;
74234;Laerm;62591;55.764;37.718;2023-07-02T12:18:38;51.02;41.05;61.74;;
74234;Laerm;62591;55.764;37.718;2023-07-02T12:21:07;50.63;41.59;59.27;;
74234;Laerm;62591;55.764;37.718;2023-07-02T12:23:35;48.88;41.71;57.06;;
74234;Laerm;62591;55.764;37.718;2023-07-02T12:26:04;48.66;41.82;59.54;;
74234;Laerm;62591;55.764;37.718;2023-07-02T12:28:34;50.66;39.83;63.01;;
74234;Laerm;62591;55.764;37.718;2023-07-02T12:31:02;49.45;41.18;64.43;;
74234;Laerm;62591;55.764;37.718;2023-07-02T12:33:31;50.74;43.58;65.82;;
74234;Laerm;62591;55.764;37.718;2023-07-02T12:36:00;49.66;43.08;67.98;;
74234;Laerm;62591;55.764;37.718;2023-07-02T12:38:30;51.25;45.00;61.38;;
74234;Laerm;62591;55.764;37.718;2023-07-02T12:40:58;49.57;44.39;63.23;;
74234;Laerm;62591;55.764;37.718;2023-07-02T12:43:27;57.64;45.18;83.85;;
74234;Laerm;62591;55.764;37.718;2023-07-02T12:45:57;52.84;41.82;76.02;;
74234;Laerm;62591;55.764;37.718;2023-07-02T12:48:25;48.00;39.46;57.60;;
74234;Laerm;62591;55.764;37.718;2023-07-02T12:50:55;50.16;41.89;59.89;;
74234;Laerm;62591;55.764;37.718;2023-07-02T12:53:24;46.37;40.16;57.63;;
74234;Laerm;62591;55.764;37.718;2023-07-02T12:55:53;48.47;40.32;63.54;;
74234;Laerm;62591;55.764;37.718;2023-07-02T12:58:22;45.97;40.42;67.78;;
74234;Laerm;62591;55.764;37.718;2023-07-02T13:00:50;49.71;41.43;63.11;;
74234;Laerm;62591;55.764;37.718;2023-07-02T13:03:20;49.02;42.96;54.57;;
74234;Laerm;62591;55.764;37.718;2023-07-02T13:05:50;50.44;45.64;59.66;;
74234;Laerm;62591;55.764;37.718;2023-07-02T13:08:19;51.40;41.03;62.20;;
74234;Laerm;62591;55.764;37.718;2023-07-02T13:10:48;49.21;42.47;62.37;;
74234;Laerm;62591;55.764;37.718;2023-07-02T13:13:17;49.22;41.33;64.05;;
74234;Laerm;62591;55.764;37.718;2023-07-02T13:15:50;56.99;42.24;76.75;;
74234;Laerm;62591;55.764;37.718;2023-07-02T13:18:20;46.53;38.65;54.11;;
74234;Laerm;62591;55.764;37.718;2023-07-02T13:20:49;47.44;40.79;61.53;;
74234;Laerm;62591;55.764;37.718;2023-07-02T13:23:18;47.56;41.19;56.70;;
74234;Laerm;62591;55.764;37.718;2023-07-02T13:25:46;51.83;42.50;67.57;;
74234;Laerm;62591;55.764;37.718;2023-07-02T13:28:15;49.51;41.79;65.33;;
74234;Laerm;62591;55.764;37.718;2023-07-02T13:30:44;46.76;40.72;57.51;;
74234;Laerm;62591;55.764;37.718;2023-07-02T13:33:13;48.58;41.94;59.52;;
74234;Laerm;62591;55.764;37.718;2023-07-02T13:35:44;49.05;40.26;61.92;;
74234;Laerm;62591;55.764;37.718;2023-07-02T13:38:13;47.75;41.03;55.90;;
74234;Laerm;62591;55.764;37.718;2023-07-02T13:40:42;45.23;39.00;56.93;;
74234;Laerm;62591;55.764;37.718;2023-07-02T13:43:11;52.02;41.96;58.97;;
74234;Laerm;62591;55.764;37.718;2023-07-02T13:45:39;46.66;40.48;53.54;;